Terminal Aerodrome Forecast
Issued by NWS Binghamton, NY

Home | Current Version | Previous Version | Text Only | Print | Product List | Glossary On
Versions: 1 2 3 4 5 6 7 8 9 10 11 12 13 14 15
000
FTUS41 KBGM 292330
TAFBGM
TAF
KBGM 292330Z 3000/3024 23005KT P6SM SCT050 BKN080
     FM300500 20005KT P6SM BKN035 OVC080
      TEMPO 3005/3008 5SM -SHRA BKN030 OVC060
     FM301600 24010KT P6SM BKN040 OVC250=

USA.gov is the U.S. government's official web portal to all federal, state and local government web resources and services.